sensor_id;sensor_type;location;lat;lon;timestamp;temperature;humidity
74416;SHT31;62850;42.428;25.618;2022-10-31T00:00:40;16.86;51.07
74416;SHT31;62850;42.428;25.618;2022-10-31T00:03:05;16.86;50.86
74416;SHT31;62850;42.428;25.618;2022-10-31T00:05:31;16.87;50.84
74416;SHT31;62850;42.428;25.618;2022-10-31T00:07:56;16.81;51.39
74416;SHT31;62850;42.428;25.618;2022-10-31T00:10:22;16.68;50.77
74416;SHT31;62850;42.428;25.618;2022-10-31T00:12:47;16.70;51.82
74416;SHT31;62850;42.428;25.618;2022-10-31T00:15:13;16.69;49.89
74416;SHT31;62850;42.428;25.618;2022-10-31T00:17:38;16.77;51.58
74416;SHT31;62850;42.428;25.618;2022-10-31T00:20:04;16.73;50.62
74416;SHT31;62850;42.428;25.618;2022-10-31T00:22:30;16.80;50.59
74416;SHT31;62850;42.428;25.618;2022-10-31T00:24:55;16.81;51.76
74416;SHT31;62850;42.428;25.618;2022-10-31T00:27:20;16.73;51.17
74416;SHT31;62850;42.428;25.618;2022-10-31T00:29:46;16.75;51.28
74416;SHT31;62850;42.428;25.618;2022-10-31T00:32:11;16.75;51.20
74416;SHT31;62850;42.428;25.618;2022-10-31T00:34:37;16.73;50.69
74416;SHT31;62850;42.428;25.618;2022-10-31T00:37:02;16.75;50.82
74416;SHT31;62850;42.428;25.618;2022-10-31T00:39:28;16.72;49.52
74416;SHT31;62850;42.428;25.618;2022-10-31T00:41:53;16.70;50.16
74416;SHT31;62850;42.428;25.618;2022-10-31T00:44:19;16.69;50.25
74416;SHT31;62850;42.428;25.618;2022-10-31T00:46:44;16.68;49.07
74416;SHT31;62850;42.428;25.618;2022-10-31T00:49:10;16.66;49.15
74416;SHT31;62850;42.428;25.618;2022-10-31T00:51:35;16.68;48.97
74416;SHT31;62850;42.428;25.618;2022-10-31T00:54:01;16.72;49.17
74416;SHT31;62850;42.428;25.618;2022-10-31T00:56:26;16.70;49.65
74416;SHT31;62850;42.428;25.618;2022-10-31T00:58:52;16.70;49.29
74416;SHT31;62850;42.428;25.618;2022-10-31T01:01:17;16.68;48.85
74416;SHT31;62850;42.428;25.618;2022-10-31T01:03:42;16.55;49.49
74416;SHT31;62850;42.428;25.618;2022-10-31T01:06:11;16.55;50.79
74416;SHT31;62850;42.428;25.618;2022-10-31T01:08:37;16.52;50.10
74416;SHT31;62850;42.428;25.618;2022-10-31T01:11:05;16.52;49.89
74416;SHT31;62850;42.428;25.618;2022-10-31T01:13:31;16.58;49.75
74416;SHT31;62850;42.428;25.618;2022-10-31T01:15:58;16.63;49.83
74416;SHT31;62850;42.428;25.618;2022-10-31T01:18:23;16.63;50.55
74416;SHT31;62850;42.428;25.618;2022-10-31T01:21:07;16.60;50.69
74416;SHT31;62850;42.428;25.618;2022-10-31T01:23:33;16.60;49.56
74416;SHT31;62850;42.428;25.618;2022-10-31T01:26:04;16.60;50.34
74416;SHT31;62850;42.428;25.618;2022-10-31T01:28:30;16.60;50.49
74416;SHT31;62850;42.428;25.618;2022-10-31T01:31:00;16.47;51.51
74416;SHT31;62850;42.428;25.618;2022-10-31T01:33:25;16.38;50.43
74416;SHT31;62850;42.428;25.618;2022-10-31T01:35:51;16.33;51.56
74416;SHT31;62850;42.428;25.618;2022-10-31T01:38:16;16.44;51.77
74416;SHT31;62850;42.428;25.618;2022-10-31T01:40:42;16.39;50.97
74416;SHT31;62850;42.428;25.618;2022-10-31T01:43:13;16.48;50.57
74416;SHT31;62850;42.428;25.618;2022-10-31T01:45:38;16.55;50.41
74416;SHT31;62850;42.428;25.618;2022-10-31T01:48:04;16.59;50.95
74416;SHT31;62850;42.428;25.618;2022-10-31T01:50:35;16.63;50.13
74416;SHT31;62850;42.428;25.618;2022-10-31T01:53:06;16.68;49.56
74416;SHT31;62850;42.428;25.618;2022-10-31T01:55:35;16.68;49.37
74416;SHT31;62850;42.428;25.618;2022-10-31T01:58:13;16.70;49.13
74416;SHT31;62850;42.428;25.618;2022-10-31T02:00:43;16.73;49.85
74416;SHT31;62850;42.428;25.618;2022-10-31T02:03:09;16.73;49.99
74416;SHT31;62850;42.428;25.618;2022-10-31T02:05:35;16.69;49.72
74416;SHT31;62850;42.428;25.618;2022-10-31T02:08:28;16.70;51.41
74416;SHT31;62850;42.428;25.618;2022-10-31T02:10:56;16.69;51.24
74416;SHT31;62850;42.428;25.618;2022-10-31T02:13:22;16.68;51.07
74416;SHT31;62850;42.428;25.618;2022-10-31T02:15:53;16.68;51.26
74416;SHT31;62850;42.428;25.618;2022-10-31T02:18:20;16.60;51.24
74416;SHT31;62850;42.428;25.618;2022-10-31T02:24:07;16.48;51.78
74416;SHT31;62850;42.428;25.618;2022-10-31T02:27:21;16.49;52.32
74416;SHT31;62850;42.428;25.618;2022-10-31T02:30:06;16.49;52.01
74416;SHT31;62850;42.428;25.618;2022-10-31T02:38:05;16.33;52.47
74416;SHT31;62850;42.428;25.618;2022-10-31T02:40:48;16.28;52.69
74416;SHT31;62850;42.428;25.618;2022-10-31T02:46:47;16.32;52.43
74416;SHT31;62850;42.428;25.618;2022-10-31T02:49:27;16.36;52.88
74416;SHT31;62850;42.428;25.618;2022-10-31T02:51:53;16.35;53.01
74416;SHT31;62850;42.428;25.618;2022-10-31T02:54:22;16.32;52.89
74416;SHT31;62850;42.428;25.618;2022-10-31T02:56:48;16.35;52.97
74416;SHT31;62850;42.428;25.618;2022-10-31T02:59:16;16.38;52.82
74416;SHT31;62850;42.428;25.618;2022-10-31T03:01:48;16.39;52.96
74416;SHT31;62850;42.428;25.618;2022-10-31T03:04:25;16.38;52.90
74416;SHT31;62850;42.428;25.618;2022-10-31T03:09:28;16.24;52.67
74416;SHT31;62850;42.428;25.618;2022-10-31T03:11:58;16.31;52.95
74416;SHT31;62850;42.428;25.618;2022-10-31T03:14:41;16.29;52.77
74416;SHT31;62850;42.428;25.618;2022-10-31T03:17:13;16.31;52.63
74416;SHT31;62850;42.428;25.618;2022-10-31T03:19:44;16.29;52.87
74416;SHT31;62850;42.428;25.618;2022-10-31T03:22:21;16.31;52.84
74416;SHT31;62850;42.428;25.618;2022-10-31T03:24:48;16.31;52.98
74416;SHT31;62850;42.428;25.618;2022-10-31T03:27:19;16.33;52.68
74416;SHT31;62850;42.428;25.618;2022-10-31T03:29:47;16.38;52.78
74416;SHT31;62850;42.428;25.618;2022-10-31T03:32:21;16.42;52.69
74416;SHT31;62850;42.428;25.618;2022-10-31T03:34:49;16.42;52.84
74416;SHT31;62850;42.428;25.618;2022-10-31T03:37:19;16.44;52.71
74416;SHT31;62850;42.428;25.618;2022-10-31T03:39:48;16.32;52.94
74416;SHT31;62850;42.428;25.618;2022-10-31T03:42:16;16.32;53.14
74416;SHT31;62850;42.428;25.618;2022-10-31T03:44:46;16.33;53.08
74416;SHT31;62850;42.428;25.618;2022-10-31T03:47:14;16.36;52.78
74416;SHT31;62850;42.428;25.618;2022-10-31T03:49:40;16.36;53.17
74416;SHT31;62850;42.428;25.618;2022-10-31T03:54:46;16.26;53.68
74416;SHT31;62850;42.428;25.618;2022-10-31T03:57:43;16.24;53.90
74416;SHT31;62850;42.428;25.618;2022-10-31T04:00:13;16.26;54.17
74416;SHT31;62850;42.428;25.618;2022-10-31T04:02:42;16.29;53.88
74416;SHT31;62850;42.428;25.618;2022-10-31T04:05:10;16.36;53.55
74416;SHT31;62850;42.428;25.618;2022-10-31T04:07:39;16.42;52.79
74416;SHT31;62850;42.428;25.618;2022-10-31T04:10:09;16.44;52.33
74416;SHT31;62850;42.428;25.618;2022-10-31T04:12:35;16.41;52.25
74416;SHT31;62850;42.428;25.618;2022-10-31T04:15:04;16.39;52.33
74416;SHT31;62850;42.428;25.618;2022-10-31T04:17:33;16.33;52.22
74416;SHT31;62850;42.428;25.618;2022-10-31T04:20:00;16.32;51.74
74416;SHT31;62850;42.428;25.618;2022-10-31T04:22:25;16.41;52.28
74416;SHT31;62850;42.428;25.618;2022-10-31T04:24:51;16.48;51.96
74416;SHT31;62850;42.428;25.618;2022-10-31T04:27:16;16.51;51.64
74416;SHT31;62850;42.428;25.618;2022-10-31T04:29:42;16.52;51.40
74416;SHT31;62850;42.428;25.618;2022-10-31T04:32:08;16.59;52.28
74416;SHT31;62850;42.428;25.618;2022-10-31T04:34:33;16.59;51.94
74416;SHT31;62850;42.428;25.618;2022-10-31T04:36:59;16.59;51.88
74416;SHT31;62850;42.428;25.618;2022-10-31T04:39:24;16.66;52.03
74416;SHT31;62850;42.428;25.618;2022-10-31T04:41:49;16.63;51.91
74416;SHT31;62850;42.428;25.618;2022-10-31T04:44:15;16.65;51.98
74416;SHT31;62850;42.428;25.618;2022-10-31T04:46:41;16.62;52.02
74416;SHT31;62850;42.428;25.618;2022-10-31T04:49:06;16.63;52.18
74416;SHT31;62850;42.428;25.618;2022-10-31T04:51:32;16.63;52.17
74416;SHT31;62850;42.428;25.618;2022-10-31T04:53:57;16.58;52.19
74416;SHT31;62850;42.428;25.618;2022-10-31T04:56:23;16.58;52.31
74416;SHT31;62850;42.428;25.618;2022-10-31T04:58:48;16.62;52.45
74416;SHT31;62850;42.428;25.618;2022-10-31T05:01:14;16.60;52.97
74416;SHT31;62850;42.428;25.618;2022-10-31T05:03:39;16.58;53.22
74416;SHT31;62850;42.428;25.618;2022-10-31T05:06:05;16.56;53.26
74416;SHT31;62850;42.428;25.618;2022-10-31T05:08:31;16.60;53.18
74416;SHT31;62850;42.428;25.618;2022-10-31T05:11:00;16.60;53.14
74416;SHT31;62850;42.428;25.618;2022-10-31T05:13:27;16.55;53.19
74416;SHT31;62850;42.428;25.618;2022-10-31T05:15:52;16.39;53.96
74416;SHT31;62850;42.428;25.618;2022-10-31T05:18:18;16.36;53.91
74416;SHT31;62850;42.428;25.618;2022-10-31T05:20:43;16.42;53.56
74416;SHT31;62850;42.428;25.618;2022-10-31T05:23:09;16.32;53.66
74416;SHT31;62850;42.428;25.618;2022-10-31T05:25:34;16.42;53.92
74416;SHT31;62850;42.428;25.618;2022-10-31T05:28:00;16.47;53.78
74416;SHT31;62850;42.428;25.618;2022-10-31T05:30:28;16.48;53.41
74416;SHT31;62850;42.428;25.618;2022-10-31T05:32:54;16.56;53.12
74416;SHT31;62850;42.428;25.618;2022-10-31T05:35:27;16.68;52.87
74416;SHT31;62850;42.428;25.618;2022-10-31T05:37:53;16.83;52.65
74416;SHT31;62850;42.428;25.618;2022-10-31T05:40:19;16.90;52.31
74416;SHT31;62850;42.428;25.618;2022-10-31T05:42:45;16.96;52.08
74416;SHT31;62850;42.428;25.618;2022-10-31T05:45:14;17.10;52.24
74416;SHT31;62850;42.428;25.618;2022-10-31T05:47:39;17.17;52.49
74416;SHT31;62850;42.428;25.618;2022-10-31T05:50:06;17.23;52.10
74416;SHT31;62850;42.428;25.618;2022-10-31T05:52:32;17.37;51.94
74416;SHT31;62850;42.428;25.618;2022-10-31T05:54:58;17.39;52.06
74416;SHT31;62850;42.428;25.618;2022-10-31T05:57:23;17.51;52.07
74416;SHT31;62850;42.428;25.618;2022-10-31T05:59:49;17.49;51.55
74416;SHT31;62850;42.428;25.618;2022-10-31T06:02:18;17.57;51.98
74416;SHT31;62850;42.428;25.618;2022-10-31T06:04:44;17.61;52.44
74416;SHT31;62850;42.428;25.618;2022-10-31T06:07:09;17.64;52.11
74416;SHT31;62850;42.428;25.618;2022-10-31T06:09:35;17.68;51.52
74416;SHT31;62850;42.428;25.618;2022-10-31T06:12:00;17.72;52.11
74416;SHT31;62850;42.428;25.618;2022-10-31T06:14:26;17.81;52.06
74416;SHT31;62850;42.428;25.618;2022-10-31T06:16:51;17.88;52.04
74416;SHT31;62850;42.428;25.618;2022-10-31T06:19:17;17.95;53.08
74416;SHT31;62850;42.428;25.618;2022-10-31T06:21:42;18.02;54.31
74416;SHT31;62850;42.428;25.618;2022-10-31T06:24:08;18.03;53.15
74416;SHT31;62850;42.428;25.618;2022-10-31T06:26:33;18.09;52.89
74416;SHT31;62850;42.428;25.618;2022-10-31T06:28:59;18.12;52.11
74416;SHT31;62850;42.428;25.618;2022-10-31T06:31:24;18.12;51.80
74416;SHT31;62850;42.428;25.618;2022-10-31T06:33:49;18.17;52.35
74416;SHT31;62850;42.428;25.618;2022-10-31T06:36:15;18.20;51.94
74416;SHT31;62850;42.428;25.618;2022-10-31T06:38:40;18.26;51.41
74416;SHT31;62850;42.428;25.618;2022-10-31T06:41:06;18.30;51.31
74416;SHT31;62850;42.428;25.618;2022-10-31T06:43:32;18.30;51.03
74416;SHT31;62850;42.428;25.618;2022-10-31T06:46:02;18.32;51.10
74416;SHT31;62850;42.428;25.618;2022-10-31T06:48:27;18.32;50.60
74416;SHT31;62850;42.428;25.618;2022-10-31T06:50:53;18.26;52.26
74416;SHT31;62850;42.428;25.618;2022-10-31T06:53:18;18.16;51.67
74416;SHT31;62850;42.428;25.618;2022-10-31T06:55:44;18.12;51.97
74416;SHT31;62850;42.428;25.618;2022-10-31T06:58:10;17.96;51.31
74416;SHT31;62850;42.428;25.618;2022-10-31T07:00:36;17.95;51.24
74416;SHT31;62850;42.428;25.618;2022-10-31T07:03:05;17.96;51.19
74416;SHT31;62850;42.428;25.618;2022-10-31T07:05:31;17.99;50.86
74416;SHT31;62850;42.428;25.618;2022-10-31T07:07:58;17.95;50.78
74416;SHT31;62850;42.428;25.618;2022-10-31T07:10:25;17.96;50.64
74416;SHT31;62850;42.428;25.618;2022-10-31T07:12:58;18.00;50.72
74416;SHT31;62850;42.428;25.618;2022-10-31T07:15:25;18.02;51.07
74416;SHT31;62850;42.428;25.618;2022-10-31T07:17:52;18.06;50.82
74416;SHT31;62850;42.428;25.618;2022-10-31T07:20:18;18.07;52.57
74416;SHT31;62850;42.428;25.618;2022-10-31T07:22:43;18.12;50.83
74416;SHT31;62850;42.428;25.618;2022-10-31T07:25:09;18.14;50.31
74416;SHT31;62850;42.428;25.618;2022-10-31T07:27:39;18.22;50.29
74416;SHT31;62850;42.428;25.618;2022-10-31T07:30:06;18.22;50.24
74416;SHT31;62850;42.428;25.618;2022-10-31T07:32:42;18.30;49.90
74416;SHT31;62850;42.428;25.618;2022-10-31T07:35:09;18.37;50.02
74416;SHT31;62850;42.428;25.618;2022-10-31T07:37:35;18.40;49.82
74416;SHT31;62850;42.428;25.618;2022-10-31T07:40:02;18.50;49.72
74416;SHT31;62850;42.428;25.618;2022-10-31T07:42:28;18.51;49.56
74416;SHT31;62850;42.428;25.618;2022-10-31T07:44:53;18.65;49.38
74416;SHT31;62850;42.428;25.618;2022-10-31T07:47:19;18.83;49.15
74416;SHT31;62850;42.428;25.618;2022-10-31T07:49:44;18.92;48.91
74416;SHT31;62850;42.428;25.618;2022-10-31T07:52:10;18.99;48.66
74416;SHT31;62850;42.428;25.618;2022-10-31T07:54:35;19.11;48.87
74416;SHT31;62850;42.428;25.618;2022-10-31T07:57:01;19.20;48.18
74416;SHT31;62850;42.428;25.618;2022-10-31T07:59:26;19.32;48.12
74416;SHT31;62850;42.428;25.618;2022-10-31T08:01:52;19.40;47.89
74416;SHT31;62850;42.428;25.618;2022-10-31T08:04:18;19.46;48.02
74416;SHT31;62850;42.428;25.618;2022-10-31T08:06:43;19.54;47.65
74416;SHT31;62850;42.428;25.618;2022-10-31T08:09:09;19.62;47.63
74416;SHT31;62850;42.428;25.618;2022-10-31T08:11:34;19.63;47.88
74416;SHT31;62850;42.428;25.618;2022-10-31T08:14:00;19.74;47.69
74416;SHT31;62850;42.428;25.618;2022-10-31T08:16:26;19.73;48.07
74416;SHT31;62850;42.428;25.618;2022-10-31T08:18:51;19.81;47.60
74416;SHT31;62850;42.428;25.618;2022-10-31T08:21:19;19.93;47.57
74416;SHT31;62850;42.428;25.618;2022-10-31T08:23:44;19.98;47.36
74416;SHT31;62850;42.428;25.618;2022-10-31T08:26:10;20.07;47.60
74416;SHT31;62850;42.428;25.618;2022-10-31T08:28:35;20.10;47.38
74416;SHT31;62850;42.428;25.618;2022-10-31T08:31:01;20.17;47.22
74416;SHT31;62850;42.428;25.618;2022-10-31T08:33:26;20.24;47.23
74416;SHT31;62850;42.428;25.618;2022-10-31T08:35:52;20.31;46.91
74416;SHT31;62850;42.428;25.618;2022-10-31T08:38:17;20.35;46.60
74416;SHT31;62850;42.428;25.618;2022-10-31T08:40:43;20.35;46.46
74416;SHT31;62850;42.428;25.618;2022-10-31T08:43:12;20.49;46.52
74416;SHT31;62850;42.428;25.618;2022-10-31T08:45:38;20.55;47.08
74416;SHT31;62850;42.428;25.618;2022-10-31T08:48:06;20.49;46.93
74416;SHT31;62850;42.428;25.618;2022-10-31T08:50:33;20.65;46.86
74416;SHT31;62850;42.428;25.618;2022-10-31T08:53:04;20.68;46.80
74416;SHT31;62850;42.428;25.618;2022-10-31T08:55:32;20.77;45.86
74416;SHT31;62850;42.428;25.618;2022-10-31T08:57:58;20.84;45.69
74416;SHT31;62850;42.428;25.618;2022-10-31T09:00:24;20.96;44.32
74416;SHT31;62850;42.428;25.618;2022-10-31T09:02:57;21.11;44.08
74416;SHT31;62850;42.428;25.618;2022-10-31T09:05:23;21.23;43.68
74416;SHT31;62850;42.428;25.618;2022-10-31T09:07:49;21.26;43.79
74416;SHT31;62850;42.428;25.618;2022-10-31T09:10:14;21.28;43.65
74416;SHT31;62850;42.428;25.618;2022-10-31T09:12:40;21.30;43.79
74416;SHT31;62850;42.428;25.618;2022-10-31T09:15:07;21.42;44.02
74416;SHT31;62850;42.428;25.618;2022-10-31T09:17:32;21.40;43.75
74416;SHT31;62850;42.428;25.618;2022-10-31T09:19:58;21.50;43.63
74416;SHT31;62850;42.428;25.618;2022-10-31T09:22:23;21.54;43.54
74416;SHT31;62850;42.428;25.618;2022-10-31T09:24:48;21.55;43.74
74416;SHT31;62850;42.428;25.618;2022-10-31T09:27:14;21.52;43.45
74416;SHT31;62850;42.428;25.618;2022-10-31T09:29:39;21.59;43.15
74416;SHT31;62850;42.428;25.618;2022-10-31T09:32:05;21.63;42.86
74416;SHT31;62850;42.428;25.618;2022-10-31T09:34:31;21.54;43.11
74416;SHT31;62850;42.428;25.618;2022-10-31T09:36:56;21.58;43.20
74416;SHT31;62850;42.428;25.618;2022-10-31T09:39:22;21.62;42.96
74416;SHT31;62850;42.428;25.618;2022-10-31T09:42:00;21.71;42.21
74416;SHT31;62850;42.428;25.618;2022-10-31T09:50:22;21.81;42.90
74416;SHT31;62850;42.428;25.618;2022-10-31T09:52:58;21.86;42.62
74416;SHT31;62850;42.428;25.618;2022-10-31T09:55:36;21.88;43.04
74416;SHT31;62850;42.428;25.618;2022-10-31T09:58:02;21.90;43.11
74416;SHT31;62850;42.428;25.618;2022-10-31T10:00:28;21.92;42.77
74416;SHT31;62850;42.428;25.618;2022-10-31T10:02:59;21.90;42.97
74416;SHT31;62850;42.428;25.618;2022-10-31T10:05:38;21.92;42.51
74416;SHT31;62850;42.428;25.618;2022-10-31T10:08:18;21.98;42.84
74416;SHT31;62850;42.428;25.618;2022-10-31T10:16:16;22.00;41.58
74416;SHT31;62850;42.428;25.618;2022-10-31T10:18:52;21.98;42.10
74416;SHT31;62850;42.428;25.618;2022-10-31T10:26:53;22.16;41.62
74416;SHT31;62850;42.428;25.618;2022-10-31T10:29:41;22.16;41.63
74416;SHT31;62850;42.428;25.618;2022-10-31T10:32:29;22.23;41.52
74416;SHT31;62850;42.428;25.618;2022-10-31T10:35:01;22.26;41.31
74416;SHT31;62850;42.428;25.618;2022-10-31T10:37:39;22.33;41.07
74416;SHT31;62850;42.428;25.618;2022-10-31T10:40:38;22.39;40.74
74416;SHT31;62850;42.428;25.618;2022-10-31T10:43:23;22.41;40.49
74416;SHT31;62850;42.428;25.618;2022-10-31T10:45:55;22.54;40.26
74416;SHT31;62850;42.428;25.618;2022-10-31T10:48:50;22.78;39.60
74416;SHT31;62850;42.428;25.618;2022-10-31T10:51:22;22.92;39.30
74416;SHT31;62850;42.428;25.618;2022-10-31T10:54:02;22.98;39.13
74416;SHT31;62850;42.428;25.618;2022-10-31T10:58:57;23.07;39.13
74416;SHT31;62850;42.428;25.618;2022-10-31T11:01:23;23.02;39.01
74416;SHT31;62850;42.428;25.618;2022-10-31T11:03:49;23.09;39.22
74416;SHT31;62850;42.428;25.618;2022-10-31T11:06:19;23.15;38.94
74416;SHT31;62850;42.428;25.618;2022-10-31T11:08:50;23.16;38.85
74416;SHT31;62850;42.428;25.618;2022-10-31T11:13:43;23.20;38.90
74416;SHT31;62850;42.428;25.618;2022-10-31T11:16:13;23.26;38.70
74416;SHT31;62850;42.428;25.618;2022-10-31T11:18:45;23.30;38.41
74416;SHT31;62850;42.428;25.618;2022-10-31T11:21:28;23.42;38.50
74416;SHT31;62850;42.428;25.618;2022-10-31T11:24:03;23.47;38.38
74416;SHT31;62850;42.428;25.618;2022-10-31T11:26:29;23.52;38.78
74416;SHT31;62850;42.428;25.618;2022-10-31T11:28:58;23.50;38.21
74416;SHT31;62850;42.428;25.618;2022-10-31T11:31:25;23.32;37.93
74416;SHT31;62850;42.428;25.618;2022-10-31T11:34:04;23.41;37.79
74416;SHT31;62850;42.428;25.618;2022-10-31T11:36:36;23.42;37.80
74416;SHT31;62850;42.428;25.618;2022-10-31T11:39:05;23.38;38.06
74416;SHT31;62850;42.428;25.618;2022-10-31T11:41:39;23.45;37.81
74416;SHT31;62850;42.428;25.618;2022-10-31T11:44:19;23.46;37.71
74416;SHT31;62850;42.428;25.618;2022-10-31T11:49:18;23.56;37.62
74416;SHT31;62850;42.428;25.618;2022-10-31T11:51:49;23.56;37.58
74416;SHT31;62850;42.428;25.618;2022-10-31T11:54:28;23.62;37.62
74416;SHT31;62850;42.428;25.618;2022-10-31T11:56:54;23.69;37.71
74416;SHT31;62850;42.428;25.618;2022-10-31T11:59:26;23.74;37.66
74416;SHT31;62850;42.428;25.618;2022-10-31T12:01:55;23.70;37.35
74416;SHT31;62850;42.428;25.618;2022-10-31T12:04:39;23.49;38.65
74416;SHT31;62850;42.428;25.618;2022-10-31T12:07:05;23.41;37.85
74416;SHT31;62850;42.428;25.618;2022-10-31T12:09:34;23.41;37.85
74416;SHT31;62850;42.428;25.618;2022-10-31T12:12:32;23.49;38.18
74416;SHT31;62850;42.428;25.618;2022-10-31T12:17:54;23.45;38.13
74416;SHT31;62850;42.428;25.618;2022-10-31T12:28:28;23.55;37.63
74416;SHT31;62850;42.428;25.618;2022-10-31T12:44:30;23.56;37.98
74416;SHT31;62850;42.428;25.618;2022-10-31T12:53:31;23.42;38.12
74416;SHT31;62850;42.428;25.618;2022-10-31T12:58:26;23.50;38.35
74416;SHT31;62850;42.428;25.618;2022-10-31T13:01:22;23.38;38.57
74416;SHT31;62850;42.428;25.618;2022-10-31T13:04:21;23.38;38.33
74416;SHT31;62850;42.428;25.618;2022-10-31T13:06:59;23.38;38.02
74416;SHT31;62850;42.428;25.618;2022-10-31T13:09:46;23.38;38.35
74416;SHT31;62850;42.428;25.618;2022-10-31T13:12:17;23.32;37.83
74416;SHT31;62850;42.428;25.618;2022-10-31T13:20:27;23.23;38.03
74416;SHT31;62850;42.428;25.618;2022-10-31T13:22:59;23.23;37.93
74416;SHT31;62850;42.428;25.618;2022-10-31T13:25:32;23.26;38.22
74416;SHT31;62850;42.428;25.618;2022-10-31T13:30:26;23.33;37.90
74416;SHT31;62850;42.428;25.618;2022-10-31T13:33:04;23.15;38.51
74416;SHT31;62850;42.428;25.618;2022-10-31T13:38:42;23.07;38.68
74416;SHT31;62850;42.428;25.618;2022-10-31T13:44:13;22.97;38.58
74416;SHT31;62850;42.428;25.618;2022-10-31T13:46:40;22.98;38.05
74416;SHT31;62850;42.428;25.618;2022-10-31T13:54:38;22.94;38.14
74416;SHT31;62850;42.428;25.618;2022-10-31T13:59:54;23.09;38.04
74416;SHT31;62850;42.428;25.618;2022-10-31T14:02:32;22.95;38.27
74416;SHT31;62850;42.428;25.618;2022-10-31T14:05:18;23.01;38.49
74416;SHT31;62850;42.428;25.618;2022-10-31T14:07:47;23.01;38.50
74416;SHT31;62850;42.428;25.618;2022-10-31T14:10:27;23.09;38.47
74416;SHT31;62850;42.428;25.618;2022-10-31T14:13:26;23.09;38.60
74416;SHT31;62850;42.428;25.618;2022-10-31T14:16:02;22.99;38.88
74416;SHT31;62850;42.428;25.618;2022-10-31T14:18:41;22.95;38.89
74416;SHT31;62850;42.428;25.618;2022-10-31T14:23:49;22.92;38.92
74416;SHT31;62850;42.428;25.618;2022-10-31T14:31:42;22.86;39.16
74416;SHT31;62850;42.428;25.618;2022-10-31T14:36:46;22.71;39.42
74416;SHT31;62850;42.428;25.618;2022-10-31T14:39:24;22.58;39.42
74416;SHT31;62850;42.428;25.618;2022-10-31T14:45:00;22.32;39.84
74416;SHT31;62850;42.428;25.618;2022-10-31T14:47:43;22.32;40.07
74416;SHT31;62850;42.428;25.618;2022-10-31T14:50:27;22.28;40.16
74416;SHT31;62850;42.428;25.618;2022-10-31T14:53:00;22.16;40.55
74416;SHT31;62850;42.428;25.618;2022-10-31T14:55:27;22.14;40.50
74416;SHT31;62850;42.428;25.618;2022-10-31T14:57:59;22.20;40.45
74416;SHT31;62850;42.428;25.618;2022-10-31T15:00:26;22.19;40.47
74416;SHT31;62850;42.428;25.618;2022-10-31T15:03:15;22.08;40.69
74416;SHT31;62850;42.428;25.618;2022-10-31T15:05:53;22.02;40.66
74416;SHT31;62850;42.428;25.618;2022-10-31T15:10:58;21.86;41.08
74416;SHT31;62850;42.428;25.618;2022-10-31T15:13:27;21.77;41.14
74416;SHT31;62850;42.428;25.618;2022-10-31T15:15:55;21.79;41.21
74416;SHT31;62850;42.428;25.618;2022-10-31T15:18:29;21.83;41.22
74416;SHT31;62850;42.428;25.618;2022-10-31T15:20:56;21.75;41.50
74416;SHT31;62850;42.428;25.618;2022-10-31T15:23:29;21.55;41.82
74416;SHT31;62850;42.428;25.618;2022-10-31T15:26:02;21.54;41.92
74416;SHT31;62850;42.428;25.618;2022-10-31T15:28:29;21.47;42.03
74416;SHT31;62850;42.428;25.618;2022-10-31T15:30:57;21.47;42.11
74416;SHT31;62850;42.428;25.618;2022-10-31T15:33:26;21.31;42.55
74416;SHT31;62850;42.428;25.618;2022-10-31T15:35:57;21.35;43.02
74416;SHT31;62850;42.428;25.618;2022-10-31T15:38:24;21.19;42.95
74416;SHT31;62850;42.428;25.618;2022-10-31T15:41:06;21.13;43.44
74416;SHT31;62850;42.428;25.618;2022-10-31T15:43:45;21.15;43.36
74416;SHT31;62850;42.428;25.618;2022-10-31T15:46:13;21.04;43.41
74416;SHT31;62850;42.428;25.618;2022-10-31T15:48:38;20.97;43.58
74416;SHT31;62850;42.428;25.618;2022-10-31T15:51:08;20.89;43.87
74416;SHT31;62850;42.428;25.618;2022-10-31T15:53:51;20.76;44.50
74416;SHT31;62850;42.428;25.618;2022-10-31T15:56:35;20.51;44.77
74416;SHT31;62850;42.428;25.618;2022-10-31T15:59:01;20.45;44.86
74416;SHT31;62850;42.428;25.618;2022-10-31T16:01:32;20.42;45.03
74416;SHT31;62850;42.428;25.618;2022-10-31T16:04:20;20.32;45.21
74416;SHT31;62850;42.428;25.618;2022-10-31T16:07:01;20.43;44.98
74416;SHT31;62850;42.428;25.618;2022-10-31T16:09:26;20.32;45.23
74416;SHT31;62850;42.428;25.618;2022-10-31T16:11:52;20.31;45.39
74416;SHT31;62850;42.428;25.618;2022-10-31T16:14:26;20.31;45.44
74416;SHT31;62850;42.428;25.618;2022-10-31T16:16:55;20.17;45.71
74416;SHT31;62850;42.428;25.618;2022-10-31T16:19:32;20.05;45.93
74416;SHT31;62850;42.428;25.618;2022-10-31T16:22:08;19.95;46.34
74416;SHT31;62850;42.428;25.618;2022-10-31T16:24:51;20.04;46.30
74416;SHT31;62850;42.428;25.618;2022-10-31T16:27:28;20.03;46.43
74416;SHT31;62850;42.428;25.618;2022-10-31T16:29:59;20.05;46.49
74416;SHT31;62850;42.428;25.618;2022-10-31T16:37:24;19.80;46.95
74416;SHT31;62850;42.428;25.618;2022-10-31T16:39:50;19.71;47.19
74416;SHT31;62850;42.428;25.618;2022-10-31T16:42:15;19.77;47.03
74416;SHT31;62850;42.428;25.618;2022-10-31T16:44:43;19.56;47.51
74416;SHT31;62850;42.428;25.618;2022-10-31T16:47:14;19.60;47.63
74416;SHT31;62850;42.428;25.618;2022-10-31T16:49:41;19.54;47.53
74416;SHT31;62850;42.428;25.618;2022-10-31T16:52:07;19.42;47.96
74416;SHT31;62850;42.428;25.618;2022-10-31T16:54:33;19.43;48.00
74416;SHT31;62850;42.428;25.618;2022-10-31T16:56:59;19.37;48.13
74416;SHT31;62850;42.428;25.618;2022-10-31T16:59:26;19.23;48.66
74416;SHT31;62850;42.428;25.618;2022-10-31T17:01:52;19.30;48.43
74416;SHT31;62850;42.428;25.618;2022-10-31T17:04:19;19.27;48.67
74416;SHT31;62850;42.428;25.618;2022-10-31T17:06:44;19.29;48.63
74416;SHT31;62850;42.428;25.618;2022-10-31T17:09:10;19.27;48.67
74416;SHT31;62850;42.428;25.618;2022-10-31T17:11:35;19.33;48.80
74416;SHT31;62850;42.428;25.618;2022-10-31T17:14:03;19.32;48.83
74416;SHT31;62850;42.428;25.618;2022-10-31T17:16:29;19.25;48.90
74416;SHT31;62850;42.428;25.618;2022-10-31T17:18:54;19.15;49.25
74416;SHT31;62850;42.428;25.618;2022-10-31T17:21:22;18.96;49.88
74416;SHT31;62850;42.428;25.618;2022-10-31T17:23:49;18.79;50.49
74416;SHT31;62850;42.428;25.618;2022-10-31T17:26:14;18.75;50.70
74416;SHT31;62850;42.428;25.618;2022-10-31T17:28:40;18.74;50.70